createdAt,value
2023-04-18T00:02:01.614Z,3.08
2023-04-18T00:05:09.140Z,2.87
2023-04-18T00:08:16.331Z,2.72
2023-04-18T00:11:20.866Z,2.30
2023-04-18T00:14:27.776Z,2.27
2023-04-18T00:17:35.003Z,2.75
2023-04-18T00:20:41.287Z,3.15
2023-04-18T00:23:46.790Z,2.75
2023-04-18T00:26:51.753Z,2.92
2023-04-18T00:29:56.958Z,2.70
2023-04-18T00:33:02.921Z,3.02
2023-04-18T00:36:09.019Z,2.50
2023-04-18T00:39:14.999Z,3.12
2023-04-18T00:42:20.553Z,2.47
2023-04-18T00:45:26.975Z,2.72
2023-04-18T00:48:32.284Z,2.22
2023-04-18T00:51:38.452Z,3.25
2023-04-18T00:54:43.896Z,3.15
2023-04-18T00:57:50.869Z,3.72
2023-04-18T01:00:57.863Z,3.83
2023-04-18T01:04:03.901Z,3.40
2023-04-18T01:07:09.419Z,2.87
2023-04-18T01:10:16.149Z,2.77
2023-04-18T01:13:30.142Z,3.33
2023-04-18T01:16:36.101Z,3.85
2023-04-18T01:19:44.469Z,3.05
2023-04-18T01:22:50.366Z,3.00
2023-04-18T01:25:56.666Z,4.80
2023-04-18T01:29:02.778Z,2.80
2023-04-18T01:32:09.737Z,2.70
2023-04-18T01:35:15.478Z,3.62
2023-04-18T01:38:20.636Z,4.15
2023-04-18T01:41:25.774Z,4.05
2023-04-18T01:44:31.882Z,3.90
2023-04-18T01:47:37.820Z,5.33
2023-04-18T01:50:42.517Z,3.98
2023-04-18T01:53:48.305Z,4.12
2023-04-18T01:56:53.678Z,3.80
2023-04-18T02:00:00.300Z,5.83
2023-04-18T02:03:16.463Z,4.20
2023-04-18T02:06:23.239Z,4.80
2023-04-18T02:09:30.429Z,3.85
2023-04-18T02:12:35.934Z,4.97
2023-04-18T02:15:41.573Z,4.55
2023-04-18T02:18:47.785Z,4.45
2023-04-18T02:21:54.619Z,3.45
2023-04-18T02:25:00.717Z,3.65
2023-04-18T02:28:05.854Z,3.42
2023-04-18T02:31:11.661Z,5.50
2023-04-18T02:34:16.979Z,4.17
2023-04-18T02:37:22.993Z,3.90
2023-04-18T02:40:30.286Z,5.22
2023-04-18T02:43:35.868Z,4.85
2023-04-18T02:46:41.215Z,3.98
2023-04-18T02:49:46.808Z,4.22
2023-04-18T02:52:52.255Z,5.47
2023-04-18T02:55:59.625Z,3.92
2023-04-18T02:59:23.252Z,3.40
2023-04-18T03:02:30.522Z,3.70
2023-04-18T03:05:38.761Z,2.87
2023-04-18T03:09:00.457Z,5.25
2023-04-18T03:12:08.899Z,3.55
2023-04-18T03:15:14.108Z,3.30
2023-04-18T03:18:20.508Z,3.60
2023-04-18T03:21:28.513Z,5.47
2023-04-18T03:24:33.573Z,3.50
2023-04-18T03:27:38.756Z,3.47
2023-04-18T03:30:46.442Z,3.75
2023-04-18T03:33:52.421Z,4.05
2023-04-18T03:36:58.298Z,5.83
2023-04-18T03:40:06.538Z,4.58
2023-04-18T03:43:14.910Z,4.90
2023-04-18T03:46:20.793Z,4.55
2023-04-18T03:49:26.097Z,4.90
2023-04-18T03:52:31.544Z,6.37
2023-04-18T03:55:36.697Z,4.25
2023-04-18T03:58:43.097Z,3.95
2023-04-18T04:01:48.050Z,4.97
2023-04-18T04:04:55.772Z,5.35
2023-04-18T04:08:01.319Z,4.37
2023-04-18T04:11:07.604Z,4.92
2023-04-18T04:14:14.695Z,4.28
2023-04-18T04:17:20.393Z,5.95
2023-04-18T04:20:28.526Z,5.55
2023-04-18T04:23:35.993Z,6.42
2023-04-18T04:26:43.323Z,5.58
2023-04-18T04:29:50.958Z,5.50
2023-04-18T04:32:58.836Z,5.10
2023-04-18T04:36:04.624Z,5.87
2023-04-18T04:39:15.568Z,5.30
2023-04-18T04:42:38.093Z,4.62
2023-04-18T04:45:46.323Z,5.28
2023-04-18T04:48:54.213Z,4.78
2023-04-18T04:52:01.400Z,5.03
2023-04-18T04:55:07.679Z,5.80
2023-04-18T04:58:13.014Z,7.08
2023-04-18T05:01:28.880Z,5.00
2023-04-18T05:04:34.893Z,4.42
2023-04-18T05:07:41.242Z,6.58
2023-04-18T05:10:48.374Z,5.00
2023-04-18T05:13:54.778Z,5.50
2023-04-18T05:17:00.227Z,6.20
2023-04-18T05:20:06.826Z,4.78
2023-04-18T05:23:12.419Z,4.55
2023-04-18T05:26:22.110Z,5.40
2023-04-18T05:29:27.714Z,5.00
2023-04-18T05:32:33.777Z,5.15
2023-04-18T05:35:43.605Z,6.87
2023-04-18T05:41:53.413Z,4.50
2023-04-18T05:45:01.553Z,6.40
2023-04-18T05:48:07.105Z,5.03
2023-04-18T05:51:13.032Z,5.30
2023-04-18T05:54:18.693Z,4.58
2023-04-18T05:57:24.233Z,4.42
2023-04-18T06:00:30.162Z,5.25
2023-04-18T06:03:35.972Z,5.03
2023-04-18T06:06:42.286Z,4.87
2023-04-18T06:09:49.837Z,4.35
2023-04-18T06:12:54.778Z,4.58
2023-04-18T06:16:00.318Z,6.12
2023-04-18T06:19:06.462Z,4.40
2023-04-18T06:22:11.416Z,4.25
2023-04-18T06:25:16.829Z,4.50
2023-04-18T06:28:22.616Z,4.53
2023-04-18T06:31:28.848Z,5.80
2023-04-18T06:34:35.616Z,4.92
2023-04-18T06:37:41.711Z,4.90
2023-04-18T06:40:47.755Z,5.17
2023-04-18T06:44:03.511Z,4.62
2023-04-18T06:46:59.842Z,4.25
2023-04-18T06:50:06.224Z,4.60
2023-04-18T06:53:11.104Z,4.65
2023-04-18T06:56:15.971Z,5.42
2023-04-18T06:59:21.407Z,5.47
2023-04-18T07:02:32.909Z,4.75
2023-04-18T07:05:38.536Z,5.10
2023-04-18T07:08:44.855Z,3.70
2023-04-18T07:11:50.647Z,3.98
2023-04-18T07:14:55.827Z,4.50
2023-04-18T07:18:01.332Z,4.42
2023-04-18T07:21:06.680Z,3.90
2023-04-18T07:24:12.143Z,6.45
2023-04-18T07:27:18.302Z,5.30
2023-04-18T07:30:24.987Z,4.22
2023-04-18T07:33:31.775Z,5.15
2023-04-18T07:36:38.351Z,4.35
2023-04-18T07:39:43.799Z,4.65
2023-04-18T07:42:50.377Z,4.85
2023-04-18T07:45:56.060Z,4.20
2023-04-18T07:49:01.096Z,4.87
2023-04-18T07:52:06.378Z,4.20
2023-04-18T07:55:14.086Z,4.08
2023-04-18T07:58:19.475Z,4.03
2023-04-18T08:01:29.263Z,4.00
2023-04-18T08:04:37.068Z,3.80
2023-04-18T08:07:44.248Z,3.67
2023-04-18T08:10:52.348Z,5.55
2023-04-18T08:13:59.985Z,4.72
2023-04-18T08:17:06.237Z,5.12
2023-04-18T08:20:14.041Z,4.00
2023-04-18T08:23:20.851Z,3.75
2023-04-18T08:26:26.684Z,4.03
2023-04-18T08:29:32.022Z,5.87
2023-04-18T08:32:38.133Z,4.17
2023-04-18T08:35:43.307Z,3.85
2023-04-18T08:38:49.229Z,4.97
2023-04-18T08:41:55.211Z,4.25
2023-04-18T08:45:00.610Z,5.97
2023-04-18T08:48:07.882Z,4.65
2023-04-18T08:51:13.785Z,4.28
2023-04-18T08:54:20.106Z,3.40
2023-04-18T08:57:32.420Z,3.90
2023-04-18T09:00:37.436Z,4.35
2023-04-18T09:03:55.038Z,3.90
2023-04-18T09:07:07.750Z,4.28
2023-04-18T09:10:13.130Z,4.05
2023-04-18T09:13:19.850Z,5.42
2023-04-18T09:16:27.121Z,6.33
2023-04-18T09:19:33.121Z,4.33
2023-04-18T09:22:40.007Z,4.22
2023-04-18T09:25:59.176Z,3.52
2023-04-18T09:29:04.674Z,5.03
2023-04-18T09:32:14.417Z,4.17
2023-04-18T09:35:20.188Z,5.12
2023-04-18T09:38:25.466Z,4.62
2023-04-18T09:41:31.456Z,3.98
2023-04-18T09:44:39.483Z,3.85
2023-04-18T09:47:51.315Z,4.25
2023-04-18T09:50:58.506Z,4.10
2023-04-18T09:54:03.941Z,4.42
2023-04-18T09:57:09.802Z,5.47
2023-04-18T10:00:27.636Z,5.10
2023-04-18T10:03:36.884Z,4.90
2023-04-18T10:06:44.489Z,4.62
2023-04-18T10:09:51.591Z,4.17
2023-04-18T10:12:58.260Z,4.53
2023-04-18T10:16:06.220Z,3.75
2023-04-18T10:19:12.091Z,4.60
2023-04-18T10:22:17.753Z,4.97
2023-04-18T10:25:31.268Z,5.10
2023-04-18T10:28:39.465Z,5.53
2023-04-18T10:31:45.559Z,4.95
2023-04-18T10:34:52.932Z,4.67
2023-04-18T10:38:08.030Z,6.60
2023-04-18T10:41:42.053Z,6.55
2023-04-18T10:44:47.420Z,5.00
2023-04-18T10:47:53.492Z,4.85
2023-04-18T10:51:33.238Z,4.47
2023-04-18T10:55:09.702Z,5.67
2023-04-18T10:58:16.682Z,4.67
2023-04-18T11:01:23.057Z,4.33
2023-04-18T11:04:29.358Z,4.72
2023-04-18T11:08:21.981Z,4.30
2023-04-18T11:11:28.388Z,3.70
2023-04-18T11:14:38.906Z,4.83
2023-04-18T11:17:54.439Z,5.28
2023-04-18T11:21:05.488Z,4.60
2023-04-18T11:24:12.162Z,4.87
2023-04-18T11:27:29.039Z,5.37
2023-04-18T11:30:40.046Z,5.87
2023-04-18T11:33:46.377Z,6.87
2023-04-18T11:36:52.435Z,5.30
2023-04-18T11:39:58.698Z,6.08
2023-04-18T11:43:04.966Z,5.83
2023-04-18T11:46:12.472Z,4.75
2023-04-18T11:49:18.773Z,5.05
2023-04-18T11:52:28.342Z,5.08
2023-04-18T11:55:34.799Z,4.90
2023-04-18T11:58:50.128Z,5.78
2023-04-18T12:01:58.869Z,5.15
2023-04-18T12:05:15.315Z,5.00
2023-04-18T12:08:27.074Z,4.30
2023-04-18T12:11:36.961Z,5.42
2023-04-18T12:14:42.351Z,4.58
2023-04-18T12:17:49.218Z,5.45
2023-04-18T12:21:02.313Z,5.75
2023-04-18T12:24:09.070Z,6.05
2023-04-18T12:27:14.709Z,6.78
2023-04-18T12:30:21.912Z,6.03
2023-04-18T12:33:27.282Z,5.60
2023-04-18T12:36:35.015Z,6.75
2023-04-18T12:39:40.977Z,6.15
2023-04-18T12:42:46.688Z,5.87
2023-04-18T12:45:52.292Z,6.30
2023-04-18T12:48:57.905Z,6.33
2023-04-18T12:52:03.207Z,7.03
2023-04-18T12:55:08.447Z,7.00
2023-04-18T12:58:13.956Z,6.87
2023-04-18T13:01:21.316Z,6.10
2023-04-18T13:04:27.444Z,6.87
2023-04-18T13:07:33.356Z,6.25
2023-04-18T13:10:39.398Z,7.05
2023-04-18T13:13:45.960Z,6.10
2023-04-18T13:16:50.987Z,4.25
2023-04-18T13:19:55.886Z,3.80
2023-04-18T13:23:01.942Z,3.33
2023-04-18T13:26:06.781Z,3.80
2023-04-18T13:29:12.689Z,5.50
2023-04-18T13:32:20.090Z,4.22
2023-04-18T13:35:27.912Z,5.30
2023-04-18T13:38:33.610Z,3.87
2023-04-18T13:41:40.257Z,5.00
2023-04-18T13:44:45.836Z,4.37
2023-04-18T13:47:51.265Z,4.10
2023-04-18T13:50:58.221Z,5.12
2023-04-18T13:54:07.191Z,4.12
2023-04-18T13:57:16.620Z,4.22
2023-04-18T14:00:23.818Z,4.10
2023-04-18T14:03:29.831Z,4.20
2023-04-18T14:06:35.848Z,3.83
2023-04-18T14:09:41.815Z,4.28
2023-04-18T14:12:47.108Z,3.40
2023-04-18T14:15:53.349Z,4.80
2023-04-18T14:19:01.140Z,4.67
2023-04-18T14:22:07.143Z,4.25
2023-04-18T14:25:12.182Z,3.98
2023-04-18T14:28:24.408Z,5.08
2023-04-18T14:31:30.994Z,4.05
2023-04-18T14:34:38.789Z,3.90
2023-04-18T14:37:44.431Z,4.30
2023-04-18T14:40:50.214Z,5.40
2023-04-18T14:43:56.021Z,4.05
2023-04-18T14:47:00.942Z,3.95
2023-04-18T14:50:06.296Z,4.35
2023-04-18T14:53:11.540Z,4.22
2023-04-18T14:56:17.734Z,3.75
2023-04-18T14:59:23.160Z,4.03
2023-04-18T15:02:28.992Z,4.42
2023-04-18T15:05:35.793Z,3.83
2023-04-18T15:08:41.576Z,4.00
2023-04-18T15:11:47.070Z,4.37
2023-04-18T15:14:52.683Z,3.45
2023-04-18T15:17:59.513Z,3.60
2023-04-18T15:21:05.669Z,3.95
2023-04-18T15:24:11.433Z,3.27
2023-04-18T15:27:17.863Z,3.72
2023-04-18T15:30:25.590Z,3.60
2023-04-18T15:33:31.809Z,3.12
2023-04-18T15:36:38.227Z,4.75
2023-04-18T15:39:44.261Z,3.65
2023-04-18T15:42:50.636Z,3.83
2023-04-18T15:45:55.556Z,4.60
2023-04-18T15:49:01.845Z,3.83
2023-04-18T15:52:09.150Z,3.70
2023-04-18T15:55:13.979Z,3.72
2023-04-18T15:58:20.387Z,4.05
2023-04-18T16:01:28.259Z,4.33
2023-04-18T16:04:34.938Z,4.25
2023-04-18T16:07:40.910Z,3.90
2023-04-18T16:10:46.692Z,4.60
2023-04-18T16:13:51.860Z,4.85
2023-04-18T16:16:58.463Z,5.10
2023-04-18T16:20:04.764Z,4.33
2023-04-18T16:23:10.275Z,5.10
2023-04-18T16:26:15.623Z,4.20
2023-04-18T16:29:21.470Z,4.03
2023-04-18T16:32:27.033Z,3.62
2023-04-18T16:35:32.832Z,4.12
2023-04-18T16:38:38.218Z,5.15
2023-04-18T16:41:43.184Z,4.03
2023-04-18T16:44:48.080Z,4.45
2023-04-18T16:47:53.860Z,4.25
2023-04-18T16:50:59.850Z,4.28
2023-04-18T16:54:06.488Z,3.92
2023-04-18T17:00:54.172Z,5.03
2023-04-18T17:04:00.697Z,4.03
2023-04-18T17:07:05.927Z,6.20
2023-04-18T17:10:12.662Z,5.95
2023-04-18T17:13:18.671Z,4.90
2023-04-18T17:16:24.673Z,5.75
2023-04-18T17:19:30.362Z,4.53
2023-04-18T17:22:37.990Z,5.12
2023-04-18T17:25:43.940Z,4.90
2023-04-18T17:28:48.752Z,5.60
2023-04-18T17:31:55.987Z,4.97
2023-04-18T17:35:02.778Z,5.25
2023-04-18T17:38:01.397Z,5.60
2023-04-18T17:41:18.204Z,4.67
2023-04-18T17:44:24.000Z,4.83
2023-04-18T17:47:29.692Z,4.90
2023-04-18T17:50:35.162Z,4.25
2023-04-18T17:53:41.043Z,4.53
2023-04-18T17:56:46.372Z,5.83
2023-04-18T17:59:51.588Z,5.08
2023-04-18T18:02:57.936Z,5.75
2023-04-18T18:06:04.408Z,5.78
2023-04-18T18:09:09.327Z,5.75
2023-04-18T18:12:15.041Z,5.87
2023-04-18T18:15:22.719Z,6.45
2023-04-18T18:18:27.683Z,6.40
2023-04-18T18:21:33.104Z,6.87
2023-04-18T18:24:39.537Z,6.85
2023-04-18T18:27:45.678Z,6.35
2023-04-18T18:30:51.274Z,6.92
2023-04-18T18:33:56.488Z,7.92
2023-04-18T18:37:03.323Z,8.25
2023-04-18T18:40:10.982Z,7.37
2023-04-18T18:43:15.714Z,7.20
2023-04-18T18:46:21.806Z,7.95
2023-04-18T18:49:28.393Z,9.50
2023-04-18T18:52:38.121Z,8.33
2023-04-18T18:55:44.267Z,8.18
2023-04-18T18:58:50.434Z,9.60
2023-04-18T19:01:55.882Z,7.65
2023-04-18T19:05:01.807Z,8.73
2023-04-18T19:08:10.380Z,7.78
2023-04-18T19:11:17.462Z,8.33
2023-04-18T19:14:22.407Z,7.37
2023-04-18T19:17:29.068Z,6.75
2023-04-18T19:20:33.683Z,7.28
2023-04-18T19:23:40.680Z,7.87
2023-04-18T19:26:47.157Z,7.33
2023-04-18T19:29:53.605Z,6.65
2023-04-18T19:32:59.600Z,6.72
2023-04-18T19:36:04.653Z,6.72
2023-04-18T19:39:11.212Z,5.72
2023-04-18T19:42:17.732Z,6.37
2023-04-18T19:45:24.121Z,5.92
2023-04-18T19:48:31.278Z,5.97
2023-04-18T19:51:36.858Z,5.58
2023-04-18T19:54:44.676Z,5.80
2023-04-18T19:57:54.710Z,6.37
2023-04-18T20:01:00.338Z,5.70
2023-04-18T20:04:06.804Z,6.33
2023-04-18T20:07:13.018Z,5.47
2023-04-18T20:10:18.372Z,5.55
2023-04-18T20:13:23.568Z,5.33
2023-04-18T20:16:29.235Z,6.12
2023-04-18T20:19:36.258Z,5.40
2023-04-18T20:22:41.475Z,5.65
2023-04-18T20:25:48.099Z,5.70
2023-04-18T20:28:53.268Z,5.50
2023-04-18T20:31:51.700Z,5.62
2023-04-18T20:34:58.459Z,5.45
2023-04-18T20:38:04.314Z,6.40
2023-04-18T20:41:10.242Z,5.45
2023-04-18T20:44:16.932Z,5.45
2023-04-18T20:47:22.440Z,5.12
2023-04-18T20:50:28.568Z,5.65
2023-04-18T20:53:36.359Z,5.35
2023-04-18T20:56:42.418Z,5.17
2023-04-18T20:59:47.455Z,5.37
2023-04-18T21:02:53.786Z,5.53
2023-04-18T21:05:59.541Z,5.78
2023-04-18T21:09:05.655Z,6.03
2023-04-18T21:12:10.405Z,5.92
2023-04-18T21:15:15.289Z,5.50
2023-04-18T21:18:20.503Z,6.35
2023-04-18T21:21:19.827Z,6.20
2023-04-18T21:24:24.988Z,6.57
2023-04-18T21:27:30.945Z,6.45
2023-04-18T21:30:36.421Z,5.70
2023-04-18T21:33:42.184Z,6.28
2023-04-18T21:36:48.593Z,6.25
2023-04-18T21:39:53.282Z,6.58
2023-04-18T21:42:58.374Z,6.40
2023-04-18T21:46:06.099Z,6.45
2023-04-18T21:49:12.756Z,6.25
2023-04-18T21:52:17.463Z,5.87
2023-04-18T21:55:23.763Z,6.30
2023-04-18T21:58:28.660Z,6.42
2023-04-18T22:01:33.956Z,6.83
2023-04-18T22:04:40.362Z,6.35
2023-04-18T22:07:57.588Z,6.25
2023-04-18T22:10:56.520Z,6.08
2023-04-18T22:14:04.285Z,6.03
2023-04-18T22:17:13.404Z,5.80
2023-04-18T22:20:21.330Z,7.17
2023-04-18T22:23:26.183Z,6.47
2023-04-18T22:26:32.228Z,5.92
2023-04-18T22:29:36.679Z,5.62
2023-04-18T22:32:41.192Z,6.10
2023-04-18T22:35:46.911Z,5.92
2023-04-18T22:38:53.563Z,5.42
2023-04-18T22:42:00.136Z,5.60
2023-04-18T22:45:04.981Z,7.17
2023-04-18T22:48:10.885Z,5.87
2023-04-18T22:51:15.691Z,5.95
2023-04-18T22:54:22.224Z,6.05
2023-04-18T22:57:27.670Z,5.65
2023-04-18T23:00:32.857Z,6.20
2023-04-18T23:03:40.941Z,5.92
2023-04-18T23:06:45.613Z,5.87
2023-04-18T23:09:51.137Z,6.00
2023-04-18T23:12:56.655Z,5.70
2023-04-18T23:16:02.265Z,5.67
2023-04-18T23:19:07.692Z,5.78
2023-04-18T23:22:13.092Z,5.35
2023-04-18T23:25:18.776Z,6.25
2023-04-18T23:28:24.141Z,6.00
2023-04-18T23:31:22.984Z,5.67
2023-04-18T23:34:28.567Z,6.37
2023-04-18T23:37:34.577Z,5.33
2023-04-18T23:40:39.877Z,6.22
2023-04-18T23:43:44.941Z,6.15
2023-04-18T23:46:50.224Z,6.22
2023-04-18T23:49:55.540Z,5.95
2023-04-18T23:53:02.913Z,6.60
2023-04-18T23:56:08.732Z,6.35
2023-04-18T23:59:14.382Z,6.12
